Time;durP1;ratioP1;P1;durP2;ratioP2;P2;SDS_P1;SDS_P2;PMS_P1;PMS_P2;Temp;Humidity;BMP_temperature;BMP_pressure;BME280_temperature;BME280_humidity;BME280_pressure;Samples;Min_cycle;Max_cycle;Signal;HPM_P1;HPM_P2
2023/05/15 00:00:11;;;;;;;24.40;17.30;;;13.00;99.90;;;;;;5056380;28;20071;-86
2023/05/15 00:02:37;;;;;;;26.20;16.98;;;13.00;99.90;;;;;;5058191;28;20058;-87
2023/05/15 00:05:07;;;;;;;35.03;31.52;;;12.90;99.90;;;;;;5057992;28;20032;-87
2023/05/15 00:07:33;;;;;;;33.08;20.70;;;13.00;99.90;;;;;;5074218;28;20055;-87
2023/05/15 00:09:59;;;;;;;32.20;22.15;;;13.00;99.90;;;;;;5074114;28;20040;-86
2023/05/15 00:12:24;;;;;;;39.28;35.40;;;12.90;99.90;;;;;;5058098;28;20547;-86
2023/05/15 00:14:50;;;;;;;31.77;19.55;;;13.00;99.90;;;;;;5074630;28;20127;-86
2023/05/15 00:17:17;;;;;;;28.15;19.70;;;13.00;99.90;;;;;;5074672;28;20230;-87
2023/05/15 00:19:42;;;;;;;28.75;20.17;;;12.90;99.90;;;;;;5057584;28;20135;-87
2023/05/15 00:22:08;;;;;;;24.17;16.67;;;12.90;99.90;;;;;;5057782;28;20401;-87
2023/05/15 00:24:34;;;;;;;28.85;25.95;;;12.80;99.90;;;;;;5057959;28;20089;-86
2023/05/15 00:27:00;;;;;;;23.27;15.40;;;12.80;99.90;;;;;;5057546;28;20502;-87
2023/05/15 00:29:26;;;;;;;29.65;18.80;;;12.80;99.90;;;;;;5057557;28;20498;-86
2023/05/15 00:31:51;;;;;;;30.92;18.38;;;12.80;99.90;;;;;;5084398;28;20031;-86
2023/05/15 00:34:17;;;;;;;32.22;20.45;;;12.80;99.90;;;;;;5094285;28;20051;-87
2023/05/15 00:36:43;;;;;;;32.42;22.17;;;12.80;99.90;;;;;;5111209;28;20040;-86
2023/05/15 00:39:09;;;;;;;44.53;39.92;;;12.80;99.90;;;;;;5094585;28;20059;-87
2023/05/15 00:41:35;;;;;;;35.03;21.67;;;12.90;99.90;;;;;;5110930;28;20424;-86
2023/05/15 00:44:02;;;;;;;43.45;25.10;;;12.90;99.90;;;;;;5094492;28;20031;-86
2023/05/15 00:46:30;;;;;;;36.63;21.38;;;12.90;99.90;;;;;;5111408;28;20039;-87
2023/05/15 00:48:57;;;;;;;41.67;25.98;;;12.90;99.90;;;;;;5094409;28;20093;-86
2023/05/15 00:51:23;;;;;;;51.10;45.53;;;12.90;99.90;;;;;;5110863;28;20051;-87
2023/05/15 00:53:51;;;;;;;41.95;26.35;;;13.00;99.90;;;;;;5111149;28;20515;-87
2023/05/15 00:56:17;;;;;;;40.00;23.40;;;13.00;99.90;;;;;;5093662;28;20043;-86
2023/05/15 00:58:45;;;;;;;50.22;45.03;;;13.00;99.90;;;;;;5111070;28;20421;-86
2023/05/15 01:01:12;;;;;;;48.63;43.72;;;13.00;99.90;;;;;;5093742;28;20040;-86
2023/05/15 01:03:38;;;;;;;36.08;22.38;;;13.10;99.90;;;;;;5093949;28;20123;-87
2023/05/15 01:06:04;;;;;;;38.13;22.48;;;13.10;99.90;;;;;;5110951;28;20047;-86
2023/05/15 01:08:42;;;;;;;48.03;43.00;;;13.00;99.90;;;;;;5110915;28;20126;-87
2023/05/15 01:11:09;;;;;;;36.20;22.42;;;13.10;99.90;;;;;;5110687;28;20075;-87
2023/05/15 01:13:34;;;;;;;39.00;23.77;;;13.10;99.90;;;;;;5094130;28;20281;-87
2023/05/15 01:16:00;;;;;;;36.33;24.02;;;13.00;99.90;;;;;;5093892;28;20043;-87
2023/05/15 01:18:31;;;;;;;49.25;44.22;;;13.00;99.90;;;;;;5110746;28;20040;-87
2023/05/15 01:21:26;;;;;;;35.10;21.27;;;13.10;99.90;;;;;;5110551;28;20409;-86
2023/05/15 01:24:20;;;;;;;33.70;20.73;;;13.10;99.90;;;;;;5094056;28;20035;-86
2023/05/15 01:27:08;;;;;;;37.45;22.95;;;13.00;99.90;;;;;;5093697;28;20707;-87
2023/05/15 01:29:51;;;;;;;46.97;42.20;;;12.90;99.90;;;;;;5093484;28;20050;-87
2023/05/15 01:32:46;;;;;;;36.45;21.38;;;13.00;99.90;;;;;;5093970;28;20128;-87
2023/05/15 01:35:22;;;;;;;35.85;20.77;;;12.90;99.90;;;;;;5099601;28;20047;-86
2023/05/15 01:38:11;;;;;;;46.92;42.22;;;12.90;99.90;;;;;;5093727;28;20684;-86
2023/05/15 01:40:37;;;;;;;45.60;41.10;;;12.90;99.90;;;;;;5110413;28;20405;-86
2023/05/15 01:43:07;;;;;;;40.10;22.95;;;13.00;99.90;;;;;;5111369;28;20038;-86
2023/05/15 01:45:34;;;;;;;35.20;20.10;;;12.90;99.90;;;;;;5114679;28;20118;-86
2023/05/15 01:48:00;;;;;;;35.10;23.45;;;12.90;99.90;;;;;;5114749;28;20606;-86
2023/05/15 01:50:29;;;;;;;44.97;40.58;;;12.80;99.90;;;;;;5097402;28;20737;-87
2023/05/15 01:52:57;;;;;;;37.95;23.73;;;12.90;99.90;;;;;;5097803;28;20039;-86
2023/05/15 01:55:24;;;;;;;35.80;21.08;;;12.90;99.90;;;;;;5114238;28;20043;-87
2023/05/15 01:57:51;;;;;;;33.97;20.83;;;12.80;99.90;;;;;;5097404;28;20036;-87
2023/05/15 02:00:17;;;;;;;33.65;21.25;;;12.80;99.90;;;;;;5097373;28;20405;-86
2023/05/15 02:02:44;;;;;;;43.78;39.42;;;12.70;99.90;;;;;;5114289;28;20040;-87
2023/05/15 02:05:12;;;;;;;34.83;21.17;;;12.80;99.90;;;;;;5097513;28;20150;-86
2023/05/15 02:07:38;;;;;;;34.67;20.88;;;12.80;99.90;;;;;;5097273;28;20051;-87
2023/05/15 02:10:04;;;;;;;43.15;38.88;;;12.70;99.90;;;;;;5113847;28;20047;-86
2023/05/15 02:12:30;;;;;;;31.02;20.20;;;12.80;99.90;;;;;;5114211;28;20043;-86
2023/05/15 02:14:57;;;;;;;29.27;18.25;;;12.70;99.90;;;;;;5097014;28;20067;-86
2023/05/15 02:17:22;;;;;;;27.67;17.77;;;12.70;99.90;;;;;;5114076;28;20067;-86
2023/05/15 02:19:49;;;;;;;25.73;16.50;;;12.70;99.90;;;;;;5096733;28;20497;-86
2023/05/15 02:22:14;;;;;;;28.50;17.02;;;12.60;99.90;;;;;;5113953;28;20027;-86
2023/05/15 02:24:40;;;;;;;28.25;16.48;;;12.60;99.90;;;;;;5097246;28;20118;-86
2023/05/15 02:27:17;;;;;;;34.38;31.08;;;12.60;99.90;;;;;;5113766;28;20071;-86
2023/05/15 02:30:17;;;;;;;28.23;18.10;;;12.70;99.90;;;;;;5096530;28;20039;-87
2023/05/15 02:33:13;;;;;;;27.13;18.38;;;12.60;99.90;;;;;;5114042;28;20081;-86
2023/05/15 02:35:51;;;;;;;28.52;18.60;;;12.60;99.90;;;;;;5096769;28;20039;-86
2023/05/15 02:38:37;;;;;;;28.38;18.70;;;12.50;99.90;;;;;;5096558;28;20050;-87
2023/05/15 02:41:06;;;;;;;33.63;30.42;;;12.50;99.90;;;;;;5096318;28;20554;-87
2023/05/15 02:43:31;;;;;;;27.42;16.67;;;12.60;99.90;;;;;;5096631;28;20040;-86
2023/05/15 02:45:59;;;;;;;27.67;17.17;;;12.50;99.90;;;;;;5113473;28;20127;-86
2023/05/15 02:48:25;;;;;;;27.65;17.65;;;12.50;99.90;;;;;;5096284;28;20035;-87
2023/05/15 02:50:52;;;;;;;25.35;17.65;;;12.50;99.90;;;;;;5096101;28;20040;-86
2023/05/15 02:53:17;;;;;;;36.15;32.55;;;12.40;99.90;;;;;;5096631;28;20450;-86
2023/05/15 02:55:43;;;;;;;35.60;32.30;;;12.50;99.90;;;;;;5095643;28;20043;-86
2023/05/15 02:58:09;;;;;;;28.98;18.88;;;12.60;99.90;;;;;;5113203;28;20424;-86
2023/05/15 03:00:34;;;;;;;25.25;17.20;;;12.50;99.90;;;;;;5095915;28;20256;-87
2023/05/15 03:03:00;;;;;;;28.00;16.85;;;12.50;99.90;;;;;;5113491;28;20036;-86
2023/05/15 03:05:25;;;;;;;37.35;33.75;;;12.40;99.90;;;;;;5113065;28;20527;-86
2023/05/15 03:07:51;;;;;;;29.20;17.35;;;12.40;99.90;;;;;;5113083;28;20039;-86
2023/05/15 03:10:17;;;;;;;28.40;17.45;;;12.40;99.90;;;;;;5095596;28;20514;-85
2023/05/15 03:12:42;;;;;;;30.35;19.60;;;12.40;99.90;;;;;;5113057;28;20051;-85
2023/05/15 03:15:08;;;;;;;26.50;16.92;;;12.30;99.90;;;;;;5112895;28;20046;-85
2023/05/15 03:17:34;;;;;;;37.92;34.33;;;12.30;99.90;;;;;;5112758;28;20114;-85
2023/05/15 03:19:59;;;;;;;41.30;37.20;;;12.40;99.90;;;;;;5112495;28;20071;-85
2023/05/15 03:22:25;;;;;;;37.65;34.08;;;12.40;99.90;;;;;;5113000;28;20070;-85
2023/05/15 03:24:51;;;;;;;37.85;34.35;;;12.50;99.90;;;;;;5113029;28;20126;-85
2023/05/15 03:27:16;;;;;;;28.10;17.67;;;12.50;99.90;;;;;;5095811;28;20035;-85
2023/05/15 03:29:42;;;;;;;27.08;16.92;;;12.40;99.90;;;;;;5112392;28;20126;-85
2023/05/15 03:32:08;;;;;;;29.25;16.63;;;12.30;99.90;;;;;;5095573;28;20047;-85
2023/05/15 03:34:33;;;;;;;28.25;17.25;;;12.30;99.90;;;;;;5112739;28;20047;-85
2023/05/15 03:36:59;;;;;;;25.75;15.90;;;12.20;99.90;;;;;;5112369;28;20043;-85
2023/05/15 03:39:24;;;;;;;26.25;16.33;;;12.20;99.90;;;;;;5112774;28;20130;-86
2023/05/15 03:41:50;;;;;;;30.60;18.85;;;12.20;99.90;;;;;;5112229;28;20396;-85
2023/05/15 03:44:16;;;;;;;28.45;19.30;;;12.20;99.90;;;;;;5095155;28;20475;-85
2023/05/15 03:46:42;;;;;;;27.67;17.52;;;12.20;99.90;;;;;;5112167;28;20066;-86
2023/05/15 03:49:07;;;;;;;28.33;17.08;;;12.20;99.90;;;;;;5112359;28;20038;-85
2023/05/15 03:51:33;;;;;;;27.23;17.67;;;12.20;99.90;;;;;;5111989;28;20386;-85
2023/05/15 03:53:59;;;;;;;38.28;34.50;;;12.20;99.90;;;;;;5095385;28;20388;-86
2023/05/15 03:56:25;;;;;;;27.00;17.95;;;12.30;99.90;;;;;;5111880;28;20052;-85
2023/05/15 03:58:52;;;;;;;24.60;15.15;;;12.20;99.90;;;;;;5112013;28;20134;-85
2023/05/15 04:01:17;;;;;;;27.02;16.80;;;12.20;99.90;;;;;;5111838;28;20035;-86
2023/05/15 04:03:43;;;;;;;29.98;17.35;;;12.20;99.90;;;;;;5112169;28;20096;-85
2023/05/15 04:06:08;;;;;;;25.77;15.88;;;12.20;99.90;;;;;;5094195;28;20051;-86
2023/05/15 04:08:34;;;;;;;25.83;16.42;;;12.10;99.90;;;;;;5111880;28;20043;-86
2023/05/15 04:11:00;;;;;;;29.15;19.88;;;12.10;99.90;;;;;;5094458;28;20046;-86
2023/05/15 04:13:25;;;;;;;24.48;17.35;;;12.10;99.90;;;;;;5111808;28;20055;-86
2023/05/15 04:15:52;;;;;;;24.02;17.08;;;12.10;99.90;;;;;;5111877;28;20396;-85
2023/05/15 04:18:18;;;;;;;28.30;17.80;;;12.10;99.90;;;;;;5094604;28;20560;-85
2023/05/15 04:20:43;;;;;;;27.10;17.15;;;12.10;99.90;;;;;;5094654;28;20071;-85
2023/05/15 04:23:09;;;;;;;26.02;16.83;;;12.10;99.90;;;;;;5111618;28;20450;-85
2023/05/15 04:25:35;;;;;;;35.13;31.70;;;12.10;99.90;;;;;;5094680;28;20093;-85
2023/05/15 04:28:00;;;;;;;37.38;33.78;;;12.10;99.90;;;;;;5111423;28;20039;-85
2023/05/15 04:30:26;;;;;;;25.88;16.23;;;12.20;99.90;;;;;;5094344;28;20085;-85
2023/05/15 04:32:52;;;;;;;26.58;17.58;;;12.20;99.90;;;;;;5111319;28;20085;-85
2023/05/15 04:35:18;;;;;;;28.13;17.45;;;12.10;99.90;;;;;;5094454;28;20413;-86
2023/05/15 04:37:46;;;;;;;36.95;33.53;;;12.10;99.90;;;;;;5094511;28;20089;-85
2023/05/15 04:40:13;;;;;;;30.58;18.65;;;12.10;99.90;;;;;;5094049;28;20071;-85
2023/05/15 04:42:39;;;;;;;30.90;17.75;;;12.20;99.90;;;;;;5111300;28;20047;-85
2023/05/15 04:45:06;;;;;;;28.48;17.83;;;12.00;99.90;;;;;;5094284;28;20039;-85
2023/05/15 04:47:31;;;;;;;28.90;18.58;;;12.10;99.90;;;;;;5094039;28;20039;-85
2023/05/15 04:49:57;;;;;;;30.55;19.48;;;12.10;99.90;;;;;;5111223;28;20100;-85
2023/05/15 04:52:22;;;;;;;32.92;20.85;;;12.10;99.90;;;;;;5111488;28;20040;-85
2023/05/15 04:54:49;;;;;;;30.65;19.77;;;12.00;99.90;;;;;;5111029;28;20036;-85
2023/05/15 04:57:15;;;;;;;32.17;18.65;;;12.00;99.90;;;;;;5111073;28;20180;-85
2023/05/15 04:59:41;;;;;;;34.40;20.58;;;12.00;99.90;;;;;;5110764;28;20097;-86
2023/05/15 05:02:09;;;;;;;30.13;19.30;;;12.00;99.90;;;;;;5094062;28;20057;-86
2023/05/15 05:04:34;;;;;;;31.38;21.08;;;12.00;99.90;;;;;;5094237;28;20035;-85
2023/05/15 05:07:03;;;;;;;32.75;21.60;;;12.00;99.90;;;;;;5110957;28;20406;-85
2023/05/15 05:09:28;;;;;;;28.63;18.50;;;12.00;99.90;;;;;;5110821;28;20450;-86
2023/05/15 05:11:54;;;;;;;34.22;19.70;;;12.00;99.90;;;;;;5094258;28;20489;-86
2023/05/15 05:14:20;;;;;;;26.70;17.98;;;12.00;99.90;;;;;;5080951;28;20082;-86
2023/05/15 05:16:45;;;;;;;39.55;35.55;;;12.00;99.90;;;;;;5094112;28;20051;-86
2023/05/15 05:19:11;;;;;;;31.52;18.83;;;12.10;99.90;;;;;;5083665;28;20412;-88
2023/05/15 05:21:37;;;;;;;29.67;17.25;;;12.10;99.90;;;;;;5083369;28;20027;-86
2023/05/15 05:24:02;;;;;;;27.25;16.38;;;12.00;99.90;;;;;;5084112;28;20111;-86
2023/05/15 05:26:28;;;;;;;28.85;17.98;;;12.00;99.90;;;;;;5099833;28;20058;-86
2023/05/15 05:28:54;;;;;;;30.67;17.88;;;12.00;99.90;;;;;;5100409;28;20466;-86
2023/05/15 05:31:20;;;;;;;30.88;18.63;;;12.00;99.90;;;;;;5100187;28;20043;-86
2023/05/15 05:33:45;;;;;;;30.75;19.15;;;12.00;99.90;;;;;;5083740;28;20047;-86
2023/05/15 05:36:11;;;;;;;29.02;17.45;;;12.00;99.90;;;;;;5083574;28;20040;-86
2023/05/15 05:38:37;;;;;;;28.70;19.35;;;12.00;99.90;;;;;;5083783;28;20034;-85
2023/05/15 05:41:03;;;;;;;32.15;18.05;;;12.00;99.90;;;;;;5083318;28;20417;-85
2023/05/15 05:43:30;;;;;;;28.83;18.40;;;12.00;99.90;;;;;;5083431;28;20035;-85
2023/05/15 05:45:55;;;;;;;29.60;17.13;;;12.00;99.90;;;;;;5083674;28;20492;-86
2023/05/15 05:48:21;;;;;;;31.02;19.33;;;12.00;99.90;;;;;;5083334;28;20044;-85
2023/05/15 05:50:47;;;;;;;29.52;18.52;;;12.00;99.90;;;;;;5083588;28;20044;-86
2023/05/15 05:53:12;;;;;;;32.58;18.23;;;12.00;99.90;;;;;;5083524;28;20405;-86
2023/05/15 05:55:38;;;;;;;31.27;21.08;;;12.10;99.90;;;;;;5118412;28;20053;-86
2023/05/15 05:58:04;;;;;;;30.02;18.05;;;12.10;99.90;;;;;;5100079;28;20047;-86
2023/05/15 06:00:29;;;;;;;30.60;18.77;;;12.10;99.90;;;;;;5100557;28;20118;-86
2023/05/15 06:02:57;;;;;;;40.17;35.90;;;12.10;99.90;;;;;;5100350;28;20040;-86
2023/05/15 06:05:26;;;;;;;32.95;18.25;;;12.20;99.90;;;;;;5083314;28;20075;-86
2023/05/15 06:07:56;;;;;;;33.85;18.35;;;12.20;99.90;;;;;;5100235;28;20404;-86
2023/05/15 06:10:22;;;;;;;32.28;18.88;;;12.10;99.90;;;;;;5082809;28;20039;-86
2023/05/15 06:12:47;;;;;;;34.45;19.67;;;12.10;99.90;;;;;;5100116;28;20411;-86
2023/05/15 06:15:14;;;;;;;32.30;18.52;;;12.20;99.90;;;;;;5083293;28;20039;-86
2023/05/15 06:17:40;;;;;;;35.33;20.17;;;12.10;99.90;;;;;;5100086;28;20043;-85
2023/05/15 06:20:09;;;;;;;31.63;18.98;;;12.10;99.90;;;;;;5099861;28;20047;-86
2023/05/15 06:22:38;;;;;;;32.10;20.88;;;12.10;99.90;;;;;;5083281;28;20063;-86
2023/05/15 06:25:05;;;;;;;32.03;18.25;;;12.10;99.90;;;;;;5100174;28;20035;-86
2023/05/15 06:27:31;;;;;;;30.83;17.92;;;12.10;99.90;;;;;;5099874;28;20072;-86
2023/05/15 06:29:56;;;;;;;31.48;19.55;;;12.10;99.90;;;;;;5080009;28;20036;-86
2023/05/15 06:32:22;;;;;;;32.42;17.60;;;12.10;99.90;;;;;;5096879;28;20042;-86
2023/05/15 06:34:48;;;;;;;31.52;17.90;;;12.10;99.90;;;;;;5096672;28;20122;-85
2023/05/15 06:37:13;;;;;;;35.17;31.50;;;12.10;99.90;;;;;;5079887;28;20122;-85
2023/05/15 06:39:39;;;;;;;29.27;17.23;;;12.20;99.90;;;;;;5096759;28;20071;-86
2023/05/15 06:42:05;;;;;;;26.50;16.35;;;12.20;99.90;;;;;;5080032;28;20251;-86
2023/05/15 06:44:31;;;;;;;32.25;29.13;;;12.10;99.90;;;;;;5096292;28;20046;-85
2023/05/15 06:46:57;;;;;;;26.40;17.83;;;12.20;99.90;;;;;;5095510;28;20035;-85
2023/05/15 06:49:23;;;;;;;27.67;16.63;;;12.30;99.90;;;;;;5079507;28;20549;-86
2023/05/15 06:51:49;;;;;;;27.65;17.42;;;12.30;99.90;;;;;;5096191;28;20046;-86
2023/05/15 06:54:15;;;;;;;34.00;30.50;;;12.30;99.90;;;;;;5078949;28;20043;-85
2023/05/15 06:56:40;;;;;;;28.27;17.10;;;12.40;99.90;;;;;;5095715;28;20040;-85
2023/05/15 06:59:06;;;;;;;29.65;18.13;;;12.50;99.90;;;;;;5079539;28;20132;-85
2023/05/15 07:01:31;;;;;;;32.22;18.40;;;12.50;99.90;;;;;;5079154;28;20039;-86
2023/05/15 07:03:57;;;;;;;29.77;16.98;;;12.50;99.90;;;;;;5096386;28;20118;-86
2023/05/15 07:06:24;;;;;;;30.65;19.13;;;12.60;99.90;;;;;;5114469;28;20036;-86
2023/05/15 07:08:50;;;;;;;31.58;17.63;;;12.70;99.90;;;;;;5079636;28;20043;-86
2023/05/15 07:11:16;;;;;;;30.55;20.42;;;12.70;99.90;;;;;;5078664;28;20511;-86
2023/05/15 07:13:41;;;;;;;37.72;33.92;;;12.70;99.90;;;;;;5079486;28;20050;-86
2023/05/15 07:16:07;;;;;;;30.92;19.15;;;12.80;99.90;;;;;;5096110;28;20035;-86
2023/05/15 07:18:32;;;;;;;35.63;31.85;;;12.90;99.90;;;;;;5096176;28;20148;-86
2023/05/15 07:20:58;;;;;;;31.95;18.42;;;13.10;99.90;;;;;;5079031;28;20485;-86
2023/05/15 07:23:24;;;;;;;27.08;16.15;;;13.10;99.90;;;;;;5079015;28;20500;-85
2023/05/15 07:25:51;;;;;;;29.90;20.25;;;13.20;99.90;;;;;;5078651;28;20169;-87
2023/05/15 07:28:17;;;;;;;29.27;16.90;;;13.30;99.90;;;;;;5095823;27;20477;-86
2023/05/15 07:30:42;;;;;;;29.60;18.38;;;13.30;99.90;;;;;;5081244;28;20569;-86
2023/05/15 07:33:08;;;;;;;26.05;18.45;;;13.40;99.90;;;;;;5095801;28;20043;-87
2023/05/15 07:35:33;;;;;;;32.28;29.13;;;13.50;99.90;;;;;;5078787;28;20092;-86
2023/05/15 07:38:00;;;;;;;27.15;17.10;;;13.70;99.90;;;;;;5095759;28;20035;-86
2023/05/15 07:40:25;;;;;;;30.88;27.98;;;13.80;99.90;;;;;;5094275;28;20043;-87
2023/05/15 07:42:51;;;;;;;27.50;18.83;;;13.90;99.90;;;;;;5093365;28;20047;-86
2023/05/15 07:45:17;;;;;;;30.17;27.25;;;13.90;99.90;;;;;;5093470;28;20052;-87
2023/05/15 07:47:47;;;;;;;30.25;27.35;;;14.00;99.90;;;;;;5093636;28;20040;-86
2023/05/15 07:50:13;;;;;;;28.38;15.95;;;14.10;99.90;;;;;;5076652;28;20039;-87
2023/05/15 07:52:38;;;;;;;27.05;24.42;;;14.10;99.90;;;;;;5093630;28;20096;-86
2023/05/15 07:55:05;;;;;;;20.20;14.15;;;14.20;99.90;;;;;;5093276;28;20035;-86
2023/05/15 07:57:30;;;;;;;22.10;15.77;;;14.30;99.90;;;;;;5094643;28;20095;-87
2023/05/15 07:59:57;;;;;;;21.48;16.15;;;14.40;99.90;;;;;;5077825;28;20122;-87
2023/05/15 08:02:22;;;;;;;25.33;22.80;;;14.50;99.90;;;;;;5094969;28;20040;-87
2023/05/15 08:04:48;;;;;;;25.23;22.83;;;14.60;99.90;;;;;;5078222;28;20035;-87
2023/05/15 08:07:14;;;;;;;24.30;21.67;;;14.80;99.90;;;;;;5094822;28;20408;-87
2023/05/15 08:09:40;;;;;;;20.65;15.25;;;14.90;99.90;;;;;;5094627;28;20166;-87
2023/05/15 08:12:35;;;;;;;22.83;20.42;;;15.00;99.90;;;;;;5094942;28;20043;-87
2023/05/15 08:15:01;;;;;;;18.73;13.90;;;15.00;99.90;;;;;;5091456;28;20044;-87
2023/05/15 08:17:27;;;;;;;20.48;14.93;;;15.00;99.90;;;;;;5078003;28;20054;-87
2023/05/15 08:19:53;;;;;;;22.33;20.08;;;15.10;99.90;;;;;;5094617;28;20575;-87
2023/05/15 08:22:18;;;;;;;22.35;20.02;;;15.20;99.90;;;;;;5101767;27;20118;-86
2023/05/15 08:24:44;;;;;;;22.00;19.80;;;15.30;99.90;;;;;;5103675;28;20125;-87
2023/05/15 08:27:10;;;;;;;19.20;14.25;;;15.40;99.90;;;;;;5097075;27;20435;-87
2023/05/15 08:29:36;;;;;;;22.35;19.95;;;15.40;99.90;;;;;;5097622;27;20043;-86
2023/05/15 08:32:02;;;;;;;20.85;18.85;;;15.50;99.90;;;;;;5115031;27;20035;-87
2023/05/15 08:34:28;;;;;;;21.35;19.20;;;15.70;99.90;;;;;;5097935;27;20096;-86
2023/05/15 08:36:54;;;;;;;21.10;19.00;;;15.80;99.90;;;;;;5099254;28;20035;-86
2023/05/15 08:39:20;;;;;;;19.67;12.15;;;15.90;99.90;;;;;;5076718;28;20110;-87
2023/05/15 08:41:59;;;;;;;19.85;17.85;;;15.90;99.90;;;;;;5111480;28;20581;-87
2023/05/15 08:44:25;;;;;;;19.55;16.67;;;16.00;99.90;;;;;;5093779;28;20043;-87
2023/05/15 08:46:52;;;;;;;18.55;16.67;;;16.10;99.90;;;;;;5076749;28;20047;-87
2023/05/15 08:49:46;;;;;;;20.20;18.23;;;16.20;99.90;;;;;;5076516;28;20036;-86
2023/05/15 08:52:12;;;;;;;20.00;18.10;;;16.30;99.90;;;;;;5076200;28;20046;-87
2023/05/15 08:54:39;;;;;;;19.38;17.40;;;16.40;99.90;;;;;;5093533;28;20040;-86
2023/05/15 08:57:06;;;;;;;17.42;14.07;;;16.40;99.90;;;;;;5093570;28;20100;-86
2023/05/15 08:59:32;;;;;;;19.77;17.80;;;16.40;99.90;;;;;;5093709;28;20069;-87
2023/05/15 09:01:58;;;;;;;20.15;18.23;;;16.50;99.90;;;;;;5076807;28;20047;-87
2023/05/15 09:04:24;;;;;;;20.20;18.27;;;16.70;99.90;;;;;;5093722;28;20092;-87
2023/05/15 09:06:50;;;;;;;19.10;17.10;;;16.80;99.90;;;;;;5093428;28;20044;-87
2023/05/15 09:09:17;;;;;;;19.17;17.13;;;16.80;99.90;;;;;;5076828;28;20047;-86
2023/05/15 09:11:44;;;;;;;17.83;15.65;;;16.90;99.90;;;;;;5093023;28;20085;-86
2023/05/15 09:14:10;;;;;;;19.35;16.77;;;16.90;99.90;;;;;;5093292;28;20071;-86
2023/05/15 09:16:37;;;;;;;17.92;16.02;;;17.00;99.90;;;;;;5076320;28;20453;-86
2023/05/15 09:19:04;;;;;;;17.77;15.95;;;17.10;99.90;;;;;;5093337;28;20039;-86
2023/05/15 09:21:30;;;;;;;17.52;15.50;;;17.30;99.90;;;;;;5093296;28;20031;-87
2023/05/15 09:24:18;;;;;;;16.83;15.02;;;17.40;99.90;;;;;;5093923;28;20036;-86
2023/05/15 09:26:46;;;;;;;16.92;14.55;;;17.50;99.90;;;;;;5093689;28;20077;-86
2023/05/15 09:29:16;;;;;;;17.85;16.05;;;17.60;99.10;;;;;;5093652;28;20075;-87
2023/05/15 09:31:41;;;;;;;16.40;14.70;;;17.80;99.90;;;;;;5103070;28;20040;-87
2023/05/15 09:34:09;;;;;;;16.63;14.90;;;17.80;99.90;;;;;;5120578;28;20125;-87
2023/05/15 09:36:35;;;;;;;16.08;14.30;;;17.90;99.10;;;;;;5098276;28;20501;-86
2023/05/15 09:39:01;;;;;;;15.38;12.52;;;17.90;98.00;;;;;;5103109;28;20032;-87
2023/05/15 09:41:27;;;;;;;17.98;14.68;;;18.00;95.50;;;;;;5120612;28;20031;-87
2023/05/15 09:43:55;;;;;;;17.85;15.95;;;18.10;94.90;;;;;;5087264;28;20031;-86
2023/05/15 09:46:21;;;;;;;16.90;15.10;;;18.00;99.90;;;;;;5101212;28;20065;-86
2023/05/15 09:48:47;;;;;;;17.48;15.57;;;18.00;97.20;;;;;;5076367;28;20036;-86
2023/05/15 09:51:15;;;;;;;16.17;14.57;;;18.10;98.00;;;;;;5076182;28;20040;-87
2023/05/15 09:53:41;;;;;;;16.15;13.85;;;18.20;93.90;;;;;;5111064;28;20079;-87
2023/05/15 09:56:09;;;;;;;17.42;15.30;;;18.30;93.80;;;;;;5075933;28;20075;-86
2023/05/15 09:58:35;;;;;;;16.10;14.45;;;18.40;95.10;;;;;;5111156;28;20042;-86
2023/05/15 10:01:02;;;;;;;16.67;14.07;;;18.50;95.30;;;;;;5110925;28;20042;-86
2023/05/15 10:03:28;;;;;;;15.57;13.93;;;18.60;93.30;;;;;;5076003;28;20385;-87
2023/05/15 10:06:04;;;;;;;16.08;14.07;;;18.80;93.00;;;;;;5087680;27;20031;-87
2023/05/15 10:08:29;;;;;;;16.35;14.18;;;19.00;92.10;;;;;;5085166;28;20043;-86
2023/05/15 10:10:58;;;;;;;16.40;14.65;;;19.10;90.80;;;;;;5094447;28;20099;-87
2023/05/15 10:13:25;;;;;;;15.40;13.75;;;19.20;87.90;;;;;;5095986;28;20043;-87
2023/05/15 10:15:52;;;;;;;16.98;13.63;;;19.20;88.10;;;;;;5097025;28;20043;-86
2023/05/15 10:18:20;;;;;;;14.80;13.23;;;19.30;88.90;;;;;;5097320;28;20035;-87
2023/05/15 10:20:46;;;;;;;14.65;12.63;;;19.30;86.50;;;;;;5096744;28;20085;-86
2023/05/15 10:23:16;;;;;;;14.95;13.35;;;19.40;84.50;;;;;;5097293;28;20044;-87
2023/05/15 10:25:53;;;;;;;15.77;13.85;;;19.60;84.40;;;;;;5097859;28;20067;-87
2023/05/15 10:28:20;;;;;;;15.40;13.80;;;19.60;81.60;;;;;;5113783;28;20050;-87
2023/05/15 10:30:46;;;;;;;17.67;15.82;;;19.60;80.50;;;;;;5114695;28;20084;-87
2023/05/15 10:33:12;;;;;;;17.02;14.40;;;19.60;83.00;;;;;;5113265;28;20451;-86
2023/05/15 10:35:39;;;;;;;14.60;13.02;;;19.60;82.70;;;;;;5061607;28;20040;-87
2023/05/15 10:38:05;;;;;;;16.08;13.27;;;19.60;80.80;;;;;;5059316;28;20040;-86
2023/05/15 10:40:37;;;;;;;16.35;12.65;;;19.70;83.20;;;;;;5075802;28;20044;-87
2023/05/15 10:43:04;;;;;;;13.48;11.43;;;19.80;84.60;;;;;;5076308;28;20039;-87
2023/05/15 10:45:31;;;;;;;14.75;13.23;;;19.80;78.40;;;;;;5059217;28;20093;-86
2023/05/15 10:47:58;;;;;;;13.48;12.00;;;19.80;80.70;;;;;;5057126;28;20505;-87
2023/05/15 10:50:24;;;;;;;16.33;13.32;;;19.90;77.80;;;;;;5058782;28;20092;-86
2023/05/15 10:52:51;;;;;;;12.48;9.73;;;19.80;78.90;;;;;;5075833;28;20035;-86
2023/05/15 10:55:17;;;;;;;10.38;7.65;;;19.90;76.30;;;;;;5059294;28;20135;-87
2023/05/15 10:57:46;;;;;;;11.30;7.13;;;19.90;74.30;;;;;;5059232;28;20612;-87
2023/05/15 11:00:21;;;;;;;10.48;7.03;;;20.00;72.60;;;;;;5058538;28;20509;-87
2023/05/15 11:02:47;;;;;;;11.52;7.75;;;20.20;72.60;;;;;;5059036;28;20040;-87
2023/05/15 11:05:13;;;;;;;12.25;8.93;;;20.30;73.50;;;;;;5085439;27;20126;-87
2023/05/15 11:07:39;;;;;;;12.23;8.93;;;20.40;72.80;;;;;;5098742;27;20176;-87
2023/05/15 11:10:38;;;;;;;12.60;9.30;;;20.50;71.90;;;;;;5115379;27;20043;-87
2023/05/15 11:13:04;;;;;;;11.80;9.60;;;20.60;73.60;;;;;;5044175;27;20404;-88
2023/05/15 11:15:46;;;;;;;14.68;11.95;;;20.80;73.00;;;;;;5115567;27;20045;-87
2023/05/15 11:18:12;;;;;;;13.63;11.85;;;21.00;73.90;;;;;;5115618;27;20031;-88
2023/05/15 11:20:39;;;;;;;13.88;11.98;;;21.10;73.10;;;;;;5134026;27;20042;-87
2023/05/15 11:23:05;;;;;;;15.02;12.82;;;21.30;73.10;;;;;;5114411;27;20130;-87
2023/05/15 11:25:31;;;;;;;14.35;11.57;;;21.40;73.00;;;;;;5114772;27;20490;-87
2023/05/15 11:27:57;;;;;;;14.75;12.68;;;21.50;73.10;;;;;;5116400;27;20047;-86
2023/05/15 11:30:35;;;;;;;15.15;13.50;;;21.50;72.70;;;;;;5098961;27;20039;-89
2023/05/15 11:33:02;;;;;;;16.42;13.02;;;21.40;71.80;;;;;;5099414;27;20074;-88
2023/05/15 11:35:34;;;;;;;15.65;13.68;;;21.10;74.10;;;;;;5116068;27;20039;-88
2023/05/15 11:38:10;;;;;;;13.70;12.32;;;21.10;74.00;;;;;;5134260;27;20060;-88
2023/05/15 11:40:46;;;;;;;14.95;13.43;;;21.10;74.30;;;;;;5099007;27;20070;-88
2023/05/15 11:43:23;;;;;;;14.15;12.75;;;21.00;73.90;;;;;;5099079;27;20081;-89
2023/05/15 11:46:09;;;;;;;15.57;12.70;;;21.00;74.50;;;;;;5098811;27;20050;-88
2023/05/15 11:48:38;;;;;;;16.02;14.32;;;20.90;74.30;;;;;;5115607;27;20046;-88
2023/05/15 11:51:04;;;;;;;15.10;13.25;;;21.00;76.50;;;;;;5116098;27;20039;-89
2023/05/15 11:53:32;;;;;;;15.40;12.30;;;21.20;77.40;;;;;;5116218;27;20027;-89
2023/05/15 11:55:58;;;;;;;16.13;13.10;;;21.40;76.60;;;;;;5095592;27;20412;-88
2023/05/15 11:58:25;;;;;;;13.45;12.05;;;21.40;76.00;;;;;;5106480;27;20039;-89
2023/05/15 12:00:52;;;;;;;13.90;10.88;;;21.60;75.50;;;;;;5078850;28;20115;-88
2023/05/15 12:03:25;;;;;;;14.73;12.63;;;21.50;74.90;;;;;;5070662;27;20031;-88
2023/05/15 12:05:52;;;;;;;;;;;21.50;74.90;;;;;;5083176;27;20638;-88
2023/05/15 12:08:19;;;;;;;14.05;12.60;;;21.50;75.30;;;;;;5117909;27;19917;-89
2023/05/15 12:10:45;;;;;;;13.98;11.70;;;21.60;75.70;;;;;;5083310;27;20032;-87
2023/05/15 12:13:12;;;;;;;12.10;10.45;;;21.90;75.60;;;;;;5122029;27;20575;-89
2023/05/15 12:15:45;;;;;;;13.52;11.35;;;22.10;74.50;;;;;;5118982;27;20078;-88
2023/05/15 12:18:11;;;;;;;14.50;11.70;;;22.30;72.40;;;;;;5075865;28;20036;-89
2023/05/15 12:20:38;;;;;;;15.40;11.77;;;22.40;72.90;;;;;;5092592;28;20489;-88
2023/05/15 12:23:06;;;;;;;12.20;10.75;;;22.30;69.60;;;;;;5093346;28;20058;-88
2023/05/15 12:25:34;;;;;;;13.45;10.88;;;22.30;72.40;;;;;;5076397;28;20070;-88
2023/05/15 12:28:01;;;;;;;13.98;10.75;;;22.50;71.20;;;;;;5075813;28;20039;-88
2023/05/15 12:30:29;;;;;;;12.88;10.32;;;22.50;70.60;;;;;;5077355;28;20088;-89